createdAt,value
2017-06-16T00:01:27.357Z,4.20
2017-06-16T00:03:55.637Z,3.92
2017-06-16T00:06:23.944Z,4.20
2017-06-16T00:08:52.224Z,3.75
2017-06-16T00:11:20.500Z,3.95
2017-06-16T00:13:48.905Z,3.80
2017-06-16T00:16:17.947Z,4.50
2017-06-16T00:18:46.220Z,4.12
2017-06-16T00:21:14.532Z,3.97
2017-06-16T00:23:42.832Z,4.12
2017-06-16T00:26:11.118Z,4.50
2017-06-16T00:28:39.425Z,4.00
2017-06-16T00:31:07.705Z,4.32
2017-06-16T00:33:35.968Z,3.85
2017-06-16T00:36:04.272Z,4.28
2017-06-16T00:38:33.341Z,4.97
2017-06-16T00:41:01.613Z,4.68
2017-06-16T00:43:30.680Z,3.90
2017-06-16T00:45:58.956Z,3.92
2017-06-16T00:48:29.116Z,4.50
2017-06-16T00:50:57.552Z,4.25
2017-06-16T00:53:25.824Z,5.47
2017-06-16T00:55:55.128Z,3.95
2017-06-16T00:58:23.439Z,4.90
2017-06-16T01:00:52.471Z,4.35
2017-06-16T01:03:20.756Z,4.35
2017-06-16T01:05:49.072Z,4.47
2017-06-16T01:08:17.343Z,4.12
2017-06-16T01:10:45.630Z,4.62
2017-06-16T01:13:14.120Z,4.20
2017-06-16T01:15:43.161Z,5.32
2017-06-16T01:18:11.428Z,3.95
2017-06-16T01:20:39.752Z,3.78
2017-06-16T01:23:08.044Z,4.10
2017-06-16T01:25:36.321Z,4.18
2017-06-16T01:28:04.626Z,4.20
2017-06-16T01:30:33.662Z,4.78
2017-06-16T01:33:02.324Z,3.85
2017-06-16T01:35:30.664Z,4.25
2017-06-16T01:37:58.940Z,4.43
2017-06-16T01:40:27.216Z,4.50
2017-06-16T01:42:55.519Z,4.65
2017-06-16T01:45:23.804Z,5.40
2017-06-16T01:47:52.076Z,5.10
2017-06-16T01:50:20.392Z,4.80
2017-06-16T01:52:48.648Z,5.15
2017-06-16T01:55:16.916Z,4.40
2017-06-16T01:57:45.992Z,4.55
2017-06-16T02:00:15.030Z,4.80
2017-06-16T02:02:43.298Z,5.10
2017-06-16T02:05:11.722Z,4.93
2017-06-16T02:07:39.987Z,4.47
2017-06-16T02:10:08.297Z,4.82
2017-06-16T02:12:36.692Z,5.07
2017-06-16T02:15:05.730Z,4.93
2017-06-16T02:17:34.013Z,5.90
2017-06-16T02:20:02.320Z,4.35
2017-06-16T02:22:30.853Z,5.10
2017-06-16T02:24:59.128Z,4.30
2017-06-16T02:27:28.397Z,4.80
2017-06-16T02:29:56.700Z,5.22
2017-06-16T02:32:24.973Z,4.85
2017-06-16T02:34:53.296Z,4.82
2017-06-16T02:37:22.330Z,6.47
2017-06-16T02:39:50.600Z,5.05
2017-06-16T02:42:18.908Z,4.82
2017-06-16T02:44:47.184Z,4.87
2017-06-16T02:47:15.463Z,5.18
2017-06-16T02:49:43.769Z,5.18
2017-06-16T02:52:12.805Z,4.95
2017-06-16T02:54:41.080Z,5.40
2017-06-16T02:57:09.408Z,5.62
2017-06-16T02:59:37.671Z,5.95
2017-06-16T03:02:05.952Z,5.00
2017-06-16T03:04:34.365Z,5.50
2017-06-16T03:07:03.400Z,5.53
2017-06-16T03:09:31.679Z,5.60
2017-06-16T03:12:00.168Z,5.20
2017-06-16T03:14:29.215Z,4.80
2017-06-16T03:16:57.497Z,6.30
2017-06-16T03:19:25.809Z,5.55
2017-06-16T03:21:54.096Z,5.30
2017-06-16T03:24:27.973Z,4.68
2017-06-16T03:26:56.241Z,5.10
2017-06-16T03:29:24.513Z,5.90
2017-06-16T03:31:52.819Z,5.78
2017-06-16T03:34:21.084Z,5.32
2017-06-16T03:36:50.255Z,5.68
2017-06-16T03:39:19.543Z,5.55
2017-06-16T03:41:48.572Z,5.35
2017-06-16T03:44:16.915Z,4.53
2017-06-16T03:46:45.200Z,4.82
2017-06-16T03:49:13.475Z,4.45
2017-06-16T03:51:41.757Z,4.60
2017-06-16T03:54:10.072Z,4.47
2017-06-16T03:56:38.352Z,4.57
2017-06-16T03:59:06.618Z,4.47
2017-06-16T04:01:34.912Z,4.47
2017-06-16T04:04:03.948Z,4.12
2017-06-16T04:06:32.215Z,4.47
2017-06-16T04:09:00.528Z,4.50
2017-06-16T04:11:29.567Z,4.40
2017-06-16T04:13:57.845Z,4.28
2017-06-16T04:16:26.918Z,4.00
2017-06-16T04:18:55.197Z,4.20
2017-06-16T04:21:24.228Z,3.85
2017-06-16T04:23:52.545Z,3.70
2017-06-16T04:26:20.820Z,3.80
2017-06-16T04:28:49.096Z,3.95
2017-06-16T04:31:17.511Z,3.65
2017-06-16T04:33:46.560Z,4.35
2017-06-16T04:36:14.828Z,3.75
2017-06-16T04:38:43.136Z,3.87
2017-06-16T04:41:11.411Z,3.45
2017-06-16T04:43:39.687Z,3.80
2017-06-16T04:46:08.019Z,4.30
2017-06-16T04:48:37.059Z,4.47
2017-06-16T04:51:05.324Z,4.28
2017-06-16T04:53:33.627Z,5.18
2017-06-16T04:56:01.900Z,4.95
2017-06-16T04:58:30.384Z,4.30
2017-06-16T05:00:59.480Z,4.68
2017-06-16T05:03:27.760Z,4.40
2017-06-16T05:05:56.080Z,4.07
2017-06-16T05:08:25.316Z,3.30
2017-06-16T05:10:54.364Z,3.42
2017-06-16T05:13:22.628Z,3.35
2017-06-16T05:15:50.988Z,3.58
2017-06-16T05:18:19.253Z,3.05
2017-06-16T05:20:47.527Z,3.12
2017-06-16T05:23:21.456Z,3.40
2017-06-16T05:25:49.772Z,2.80
2017-06-16T05:28:18.044Z,3.37
2017-06-16T05:30:46.363Z,2.65
2017-06-16T05:33:14.636Z,2.60
2017-06-16T05:35:42.900Z,2.50
2017-06-16T05:38:11.212Z,2.97
2017-06-16T05:40:40.256Z,2.92
2017-06-16T05:43:08.533Z,2.65
2017-06-16T05:45:36.848Z,2.30
2017-06-16T05:48:05.112Z,2.53
2017-06-16T05:50:33.396Z,2.58
2017-06-16T05:53:01.711Z,2.25
2017-06-16T05:55:30.744Z,2.67
2017-06-16T05:57:59.022Z,2.80
2017-06-16T06:00:27.320Z,2.78
2017-06-16T06:02:55.631Z,2.55
2017-06-16T06:05:23.897Z,2.50
2017-06-16T06:07:52.384Z,2.53
2017-06-16T06:10:21.447Z,2.67
2017-06-16T06:12:49.715Z,2.33
2017-06-16T06:15:18.032Z,2.35
2017-06-16T06:17:46.308Z,2.80
2017-06-16T06:20:14.572Z,2.10
2017-06-16T06:22:42.896Z,2.60
2017-06-16T06:25:11.176Z,2.30
2017-06-16T06:27:39.451Z,2.58
2017-06-16T06:30:07.764Z,2.10
2017-06-16T06:32:36.053Z,2.35
2017-06-16T06:35:04.320Z,2.60
2017-06-16T06:37:32.636Z,2.30
2017-06-16T06:40:01.672Z,2.30
2017-06-16T06:42:29.948Z,2.20
2017-06-16T06:44:58.265Z,2.50
2017-06-16T06:47:26.532Z,1.90
2017-06-16T06:49:54.809Z,2.90
2017-06-16T06:52:23.128Z,2.25
2017-06-16T06:54:52.167Z,2.15
2017-06-16T06:57:20.433Z,2.62
2017-06-16T06:59:48.736Z,2.62
2017-06-16T07:02:17.780Z,2.65
2017-06-16T07:04:46.055Z,2.97
2017-06-16T07:07:14.360Z,2.58
2017-06-16T07:09:42.632Z,2.65
2017-06-16T07:12:10.911Z,2.92
2017-06-16T07:14:39.207Z,2.60
2017-06-16T07:17:07.480Z,2.45
2017-06-16T07:19:36.520Z,2.35
2017-06-16T07:22:04.886Z,2.60
2017-06-16T07:24:33.144Z,2.42
2017-06-16T07:27:01.409Z,2.33
2017-06-16T07:29:29.814Z,2.80
2017-06-16T07:31:59.374Z,2.60
2017-06-16T07:34:27.654Z,2.62
2017-06-16T07:36:59.518Z,3.00
2017-06-16T07:39:28.673Z,2.70
2017-06-16T07:41:56.936Z,2.42
2017-06-16T07:44:25.247Z,3.53
2017-06-16T07:46:53.512Z,2.45
2017-06-16T07:49:21.792Z,2.00
2017-06-16T07:51:50.111Z,2.75
2017-06-16T07:54:19.148Z,2.25
2017-06-16T07:56:47.481Z,2.28
2017-06-16T07:59:16.011Z,2.25
2017-06-16T08:01:45.048Z,1.83
2017-06-16T08:04:13.320Z,2.22
2017-06-16T08:06:44.706Z,2.05
2017-06-16T08:09:13.744Z,2.00
2017-06-16T08:11:42.010Z,1.92
2017-06-16T08:14:10.307Z,2.12
2017-06-16T08:16:38.584Z,2.22
2017-06-16T08:19:06.849Z,2.12
2017-06-16T08:21:35.162Z,1.70
2017-06-16T08:24:03.436Z,1.58
2017-06-16T08:26:32.476Z,1.50
2017-06-16T08:29:00.782Z,2.08
2017-06-16T08:31:29.823Z,1.62
2017-06-16T08:33:58.100Z,1.80
2017-06-16T08:36:26.404Z,1.95
2017-06-16T08:38:54.679Z,2.00
2017-06-16T08:41:22.947Z,1.80
2017-06-16T08:43:51.253Z,2.17
2017-06-16T08:46:19.515Z,1.77
2017-06-16T08:48:48.557Z,1.60
2017-06-16T08:51:16.967Z,2.05
2017-06-16T08:53:46.000Z,1.98
2017-06-16T08:56:14.267Z,1.70
2017-06-16T08:58:42.573Z,1.60
2017-06-16T09:01:11.604Z,1.70
2017-06-16T09:03:39.888Z,2.08
2017-06-16T09:06:08.200Z,2.10
2017-06-16T09:08:36.476Z,2.00
2017-06-16T09:11:04.755Z,2.12
2017-06-16T09:13:33.244Z,2.05
2017-06-16T09:16:01.521Z,1.75
2017-06-16T09:18:30.553Z,1.65
2017-06-16T09:20:58.932Z,1.90
2017-06-16T09:23:27.213Z,2.03
2017-06-16T09:25:55.480Z,1.70
2017-06-16T09:28:24.660Z,1.90
2017-06-16T09:30:52.932Z,2.08
2017-06-16T09:33:21.964Z,1.85
2017-06-16T09:35:50.277Z,2.08
2017-06-16T09:38:19.309Z,2.00
2017-06-16T09:40:47.576Z,2.12
2017-06-16T09:43:16.068Z,2.30
2017-06-16T09:45:45.103Z,2.05
2017-06-16T09:48:13.376Z,2.05
2017-06-16T09:50:41.692Z,2.42
2017-06-16T09:53:09.964Z,2.72
2017-06-16T09:55:38.232Z,2.45
2017-06-16T09:58:06.524Z,2.15
2017-06-16T10:00:34.797Z,2.28
2017-06-16T10:03:03.076Z,2.22
2017-06-16T10:05:32.152Z,2.87
2017-06-16T10:08:00.425Z,2.30
2017-06-16T10:10:29.608Z,3.10
2017-06-16T10:12:58.676Z,2.37
2017-06-16T10:15:26.952Z,2.05
2017-06-16T10:17:55.992Z,2.53
2017-06-16T10:20:24.300Z,2.60
2017-06-16T10:22:53.336Z,2.80
2017-06-16T10:25:21.603Z,2.92
2017-06-16T10:27:49.908Z,2.53
2017-06-16T10:30:18.186Z,2.45
2017-06-16T10:32:46.473Z,3.03
2017-06-16T10:35:14.812Z,2.60
2017-06-16T10:37:43.092Z,2.40
2017-06-16T10:40:11.372Z,2.42
2017-06-16T10:42:39.855Z,2.87
2017-06-16T10:45:08.904Z,2.35
2017-06-16T10:47:37.168Z,2.55
2017-06-16T10:50:05.480Z,2.30
2017-06-16T10:52:35.116Z,2.47
2017-06-16T10:55:03.396Z,2.25
2017-06-16T10:57:31.700Z,2.20
2017-06-16T10:59:59.981Z,2.12
2017-06-16T11:02:28.259Z,2.53
2017-06-16T11:04:56.572Z,2.08
2017-06-16T11:07:24.862Z,2.15
2017-06-16T11:09:53.140Z,1.98
2017-06-16T11:12:21.647Z,2.20
2017-06-16T11:14:50.683Z,2.05
2017-06-16T11:17:18.949Z,2.55
2017-06-16T11:19:47.258Z,1.90
2017-06-16T11:22:16.296Z,1.75
2017-06-16T11:24:45.580Z,2.08
2017-06-16T11:27:13.981Z,2.03
2017-06-16T11:29:43.017Z,1.90
2017-06-16T11:32:11.281Z,2.05
2017-06-16T11:34:39.680Z,1.55
2017-06-16T11:37:07.952Z,2.30
2017-06-16T11:39:36.984Z,1.60
2017-06-16T11:42:05.324Z,1.73
2017-06-16T11:44:33.595Z,2.03
2017-06-16T11:47:01.897Z,2.05
2017-06-16T11:49:30.203Z,1.65
2017-06-16T11:51:58.484Z,1.87
2017-06-16T11:54:26.779Z,1.80
2017-06-16T11:56:55.135Z,1.58
2017-06-16T11:59:23.412Z,2.00
2017-06-16T12:01:51.689Z,1.75
2017-06-16T12:04:20.760Z,1.58
2017-06-16T12:06:49.799Z,1.83
2017-06-16T12:09:18.084Z,1.80
2017-06-16T12:11:46.396Z,2.00
2017-06-16T12:14:14.675Z,1.95
2017-06-16T12:16:42.933Z,2.10
2017-06-16T12:19:11.252Z,1.80
2017-06-16T12:21:40.296Z,1.70
2017-06-16T12:24:08.576Z,1.90
2017-06-16T12:26:36.912Z,2.15
2017-06-16T12:29:05.184Z,1.92
2017-06-16T12:31:33.451Z,1.60
2017-06-16T12:34:01.768Z,2.10
2017-06-16T12:36:32.063Z,1.77
2017-06-16T12:39:00.336Z,1.80
2017-06-16T12:41:28.776Z,1.90
2017-06-16T12:43:57.832Z,2.45
2017-06-16T12:46:26.100Z,2.08
2017-06-16T12:48:54.420Z,1.98
2017-06-16T12:51:22.681Z,1.87
2017-06-16T12:53:52.844Z,1.70
2017-06-16T12:56:21.160Z,2.00
2017-06-16T12:58:49.420Z,1.80
2017-06-16T13:01:17.688Z,1.90
2017-06-16T13:03:45.999Z,1.90
2017-06-16T13:06:14.296Z,1.45
2017-06-16T13:08:42.568Z,1.67
2017-06-16T13:11:10.880Z,1.60
2017-06-16T13:13:39.914Z,2.28
2017-06-16T13:16:08.188Z,1.90
2017-06-16T13:18:36.486Z,2.20
2017-06-16T13:21:05.527Z,2.00
2017-06-16T13:23:33.806Z,2.10
2017-06-16T13:26:02.884Z,1.90
2017-06-16T13:28:31.156Z,1.40
2017-06-16T13:31:00.205Z,2.37
2017-06-16T13:33:28.539Z,1.75
2017-06-16T13:35:56.804Z,2.67
2017-06-16T13:38:25.075Z,2.00
2017-06-16T13:40:53.388Z,2.33
2017-06-16T13:43:22.544Z,2.05
2017-06-16T13:45:50.812Z,2.33
2017-06-16T13:48:25.133Z,1.60
2017-06-16T13:50:54.164Z,1.95
2017-06-16T13:53:22.436Z,1.80
2017-06-16T13:55:50.936Z,1.90
2017-06-16T13:58:19.968Z,1.90
2017-06-16T14:00:48.252Z,1.90
2017-06-16T14:03:16.567Z,1.70
2017-06-16T14:05:44.839Z,1.60
2017-06-16T14:08:13.120Z,2.47
2017-06-16T14:10:41.436Z,1.60
2017-06-16T14:13:09.707Z,2.05
2017-06-16T14:15:37.988Z,1.98
2017-06-16T14:18:06.307Z,1.70
2017-06-16T14:20:35.339Z,1.45
2017-06-16T14:23:03.748Z,1.77
2017-06-16T14:25:32.815Z,1.50
2017-06-16T14:28:01.096Z,2.00
2017-06-16T14:30:30.131Z,1.65
2017-06-16T14:32:58.436Z,1.65
2017-06-16T14:35:26.716Z,1.55
2017-06-16T14:37:54.991Z,1.40
2017-06-16T14:40:23.612Z,1.85
2017-06-16T14:42:51.888Z,1.40
2017-06-16T14:45:20.932Z,1.80
2017-06-16T14:47:49.224Z,1.60
2017-06-16T14:50:18.826Z,1.60
2017-06-16T14:52:47.856Z,1.87
2017-06-16T14:55:16.356Z,3.08
2017-06-16T14:57:45.388Z,2.10
2017-06-16T15:00:14.575Z,1.70
2017-06-16T15:02:42.878Z,1.65
2017-06-16T15:05:11.920Z,1.60
2017-06-16T15:07:40.187Z,1.60
2017-06-16T15:10:08.492Z,1.60
2017-06-16T15:12:37.523Z,1.95
2017-06-16T15:15:05.809Z,1.52
2017-06-16T15:17:34.131Z,2.30
2017-06-16T15:20:02.404Z,1.65
2017-06-16T15:22:36.650Z,1.45
2017-06-16T15:25:05.692Z,1.75
2017-06-16T15:27:33.964Z,2.00
2017-06-16T15:30:02.267Z,1.62
2017-06-16T15:32:30.537Z,1.52
2017-06-16T15:34:58.852Z,1.60
2017-06-16T15:37:27.152Z,1.60
2017-06-16T15:39:55.426Z,1.65
2017-06-16T15:42:23.700Z,1.55
2017-06-16T15:44:52.004Z,2.00
2017-06-16T15:47:20.286Z,1.77
2017-06-16T15:49:49.313Z,2.10
2017-06-16T15:52:17.821Z,1.70
2017-06-16T15:54:46.087Z,1.62
2017-06-16T15:57:15.136Z,2.10
2017-06-16T15:59:43.628Z,1.60
2017-06-16T16:02:12.660Z,1.87
2017-06-16T16:04:40.936Z,1.60
2017-06-16T16:07:09.242Z,1.70
2017-06-16T16:09:37.531Z,1.77
2017-06-16T16:12:07.255Z,1.77
2017-06-16T16:14:35.916Z,1.80
2017-06-16T16:17:04.196Z,1.80
2017-06-16T16:19:32.471Z,1.67
2017-06-16T16:22:00.768Z,1.92
2017-06-16T16:24:29.044Z,2.08
2017-06-16T16:26:57.315Z,1.40
2017-06-16T16:29:25.748Z,1.90
2017-06-16T16:31:54.772Z,1.90
2017-06-16T16:34:23.043Z,1.37
2017-06-16T16:36:52.395Z,2.33
2017-06-16T16:39:20.699Z,1.48
2017-06-16T16:41:48.993Z,1.85
2017-06-16T16:44:18.072Z,2.05
2017-06-16T16:46:46.340Z,2.00
2017-06-16T16:49:14.615Z,1.90
2017-06-16T16:51:42.942Z,2.12
2017-06-16T16:54:11.208Z,2.40
2017-06-16T16:56:41.771Z,1.98
2017-06-16T16:59:10.069Z,2.12
2017-06-16T17:01:38.341Z,2.05
2017-06-16T17:04:07.404Z,2.08
2017-06-16T17:06:35.743Z,2.22
2017-06-16T17:09:04.024Z,2.40
2017-06-16T17:11:32.296Z,2.55
2017-06-16T17:14:01.385Z,2.72
2017-06-16T17:16:29.662Z,2.45
2017-06-16T17:18:57.939Z,2.67
2017-06-16T17:21:26.253Z,2.75
2017-06-16T17:23:54.519Z,2.80
2017-06-16T17:26:22.792Z,2.65
2017-06-16T17:28:51.099Z,2.60
2017-06-16T17:31:19.380Z,2.50
2017-06-16T17:33:47.655Z,2.87
2017-06-16T17:36:16.145Z,3.40
2017-06-16T17:38:45.185Z,2.40
2017-06-16T17:41:13.453Z,2.92
2017-06-16T17:43:41.952Z,3.05
2017-06-16T17:46:10.992Z,3.28
2017-06-16T17:48:39.264Z,2.55
2017-06-16T17:51:07.596Z,2.75
2017-06-16T17:53:35.863Z,2.67
2017-06-16T17:56:04.160Z,3.30
2017-06-16T17:58:32.488Z,2.70
2017-06-16T18:01:00.776Z,3.45
2017-06-16T18:03:29.063Z,2.87
2017-06-16T18:05:57.368Z,2.60
2017-06-16T18:08:25.652Z,2.80
2017-06-16T18:10:53.908Z,2.70
2017-06-16T18:13:22.209Z,4.10
2017-06-16T18:15:51.247Z,2.40
2017-06-16T18:18:19.520Z,2.20
2017-06-16T18:20:47.848Z,3.95
2017-06-16T18:23:16.112Z,2.70
2017-06-16T18:25:44.392Z,2.20
2017-06-16T18:28:12.699Z,2.65
2017-06-16T18:30:41.736Z,2.10
2017-06-16T18:33:10.003Z,2.20
2017-06-16T18:35:38.328Z,2.42
2017-06-16T18:38:06.608Z,2.65
2017-06-16T18:40:34.888Z,2.55
2017-06-16T18:43:03.224Z,2.87
2017-06-16T18:45:33.459Z,2.35
2017-06-16T18:48:01.736Z,3.17
2017-06-16T18:50:30.096Z,2.47
2017-06-16T18:52:58.398Z,2.00
2017-06-16T18:55:26.668Z,2.22
2017-06-16T18:57:55.102Z,2.22
2017-06-16T19:00:24.144Z,2.10
2017-06-16T19:02:52.415Z,2.40
2017-06-16T19:05:20.732Z,2.25
2017-06-16T19:07:49.007Z,2.47
2017-06-16T19:10:17.301Z,2.25
2017-06-16T19:12:45.608Z,1.70
2017-06-16T19:15:13.888Z,2.20
2017-06-16T19:17:42.160Z,2.22
2017-06-16T19:20:10.476Z,2.75
2017-06-16T19:22:39.911Z,2.10
2017-06-16T19:25:08.167Z,2.30
2017-06-16T19:27:36.472Z,2.20
2017-06-16T19:30:04.740Z,2.40
2017-06-16T19:32:33.779Z,2.30
2017-06-16T19:35:02.091Z,2.12
2017-06-16T19:37:31.140Z,3.03
2017-06-16T19:39:59.404Z,2.50
2017-06-16T19:42:29.457Z,2.12
2017-06-16T19:44:57.743Z,2.22
2017-06-16T19:47:26.005Z,2.00
2017-06-16T19:49:54.324Z,2.10
2017-06-16T19:52:22.598Z,2.30
2017-06-16T19:54:50.872Z,2.50
2017-06-16T19:57:19.213Z,2.42
2017-06-16T19:59:47.483Z,2.35
2017-06-16T20:02:16.516Z,2.30
2017-06-16T20:04:44.812Z,2.50
2017-06-16T20:07:13.088Z,1.85
2017-06-16T20:09:42.131Z,2.70
2017-06-16T20:12:10.428Z,2.00
2017-06-16T20:14:39.459Z,2.30
2017-06-16T20:17:07.732Z,3.10
2017-06-16T20:19:36.236Z,2.55
2017-06-16T20:22:05.282Z,2.03
2017-06-16T20:24:33.554Z,2.65
2017-06-16T20:27:02.024Z,2.30
2017-06-16T20:29:30.293Z,2.00
2017-06-16T20:31:59.336Z,2.50
2017-06-16T20:34:27.656Z,2.47
2017-06-16T20:36:55.927Z,2.00
2017-06-16T20:39:24.208Z,2.05
2017-06-16T20:41:52.719Z,2.10
2017-06-16T20:44:25.950Z,2.42
2017-06-16T20:46:54.264Z,2.45
2017-06-16T20:49:23.308Z,2.10
2017-06-16T20:51:51.580Z,2.60
2017-06-16T20:54:19.868Z,2.50
2017-06-16T20:56:48.913Z,2.30
2017-06-16T20:59:23.512Z,2.30
2017-06-16T21:01:57.219Z,2.40
2017-06-16T21:04:31.632Z,2.92
2017-06-16T21:07:06.711Z,2.67
2017-06-16T21:09:41.380Z,2.83
2017-06-16T21:12:15.079Z,2.70
2017-06-16T21:14:49.000Z,2.97
2017-06-16T21:17:22.868Z,3.17
2017-06-16T21:19:57.152Z,2.45
2017-06-16T21:22:37.031Z,2.50
2017-06-16T21:25:11.788Z,3.20
2017-06-16T21:27:45.739Z,2.78
2017-06-16T21:30:20.161Z,2.70
2017-06-16T21:32:53.996Z,2.60
2017-06-16T21:35:28.691Z,3.40
2017-06-16T21:38:03.360Z,2.40
2017-06-16T21:40:38.301Z,2.95
2017-06-16T21:43:06.572Z,2.15
2017-06-16T21:45:35.708Z,2.35
2017-06-16T21:48:04.016Z,2.58
2017-06-16T21:50:33.049Z,2.15
2017-06-16T21:53:01.319Z,2.50
2017-06-16T21:55:29.625Z,2.65
2017-06-16T21:57:57.905Z,2.80
2017-06-16T22:00:26.172Z,2.22
2017-06-16T22:02:54.480Z,2.58
2017-06-16T22:05:23.962Z,2.03
2017-06-16T22:07:52.895Z,2.80
2017-06-16T22:10:21.332Z,2.40
2017-06-16T22:12:49.600Z,2.55
2017-06-16T22:15:18.635Z,2.30
2017-06-16T22:17:46.964Z,2.25
2017-06-16T22:20:15.240Z,2.00
2017-06-16T22:22:43.504Z,2.00
2017-06-16T22:25:11.831Z,3.20
2017-06-16T22:27:41.871Z,2.08
2017-06-16T22:30:10.158Z,2.80
2017-06-16T22:32:38.464Z,2.33
2017-06-16T22:35:06.732Z,2.70
2017-06-16T22:37:35.008Z,2.10
2017-06-16T22:40:03.416Z,2.65
2017-06-16T22:42:31.687Z,2.97
2017-06-16T22:44:59.952Z,2.90
2017-06-16T22:47:29.037Z,2.65
2017-06-16T22:49:58.068Z,2.40
2017-06-16T22:52:26.340Z,2.15
2017-06-16T22:54:54.653Z,2.37
2017-06-16T22:57:23.792Z,2.42
2017-06-16T22:59:52.058Z,1.90
2017-06-16T23:02:20.365Z,2.40
2017-06-16T23:04:48.631Z,2.62
2017-06-16T23:07:16.903Z,2.60
2017-06-16T23:09:45.216Z,3.20
2017-06-16T23:12:13.484Z,3.03
2017-06-16T23:14:42.516Z,2.55
2017-06-16T23:17:10.829Z,3.15
2017-06-16T23:19:39.860Z,2.35
2017-06-16T23:22:08.129Z,2.92
2017-06-16T23:24:36.446Z,2.70
2017-06-16T23:27:05.480Z,2.80
2017-06-16T23:29:33.744Z,2.85
2017-06-16T23:32:02.064Z,2.50
2017-06-16T23:34:30.339Z,2.50
2017-06-16T23:36:58.644Z,2.05
2017-06-16T23:39:26.944Z,3.00
2017-06-16T23:41:55.224Z,2.17
2017-06-16T23:44:23.496Z,2.90
2017-06-16T23:46:51.794Z,2.53
2017-06-16T23:49:20.056Z,2.97
2017-06-16T23:51:48.324Z,3.12
2017-06-16T23:54:17.499Z,2.80
2017-06-16T23:56:45.772Z,2.20
2017-06-16T23:59:15.829Z,2.80
